Time;durP1;ratioP1;P1;durP2;ratioP2;P2;SDS_P1;SDS_P2;PMS_P1;PMS_P2;Temp;Humidity;BMP_temperature;BMP_pressure;BME280_temperature;BME280_humidity;BME280_pressure;Samples;Min_cycle;Max_cycle;Signal;HPM_P1;HPM_P2
2022/05/18 00:01:07;;;;;;;3.47;2.63;;;13.30;99.90;;;;;;5011388;28;20025;-76
2022/05/18 00:03:36;;;;;;;5.80;2.17;;;13.20;99.90;;;;;;5011541;28;20108;-76
2022/05/18 00:06:03;;;;;;;3.60;2.53;;;13.20;99.90;;;;;;5011473;28;20740;-75
2022/05/18 00:08:36;;;;;;;3.28;2.00;;;13.20;99.90;;;;;;5010932;28;20034;-75
2022/05/18 00:11:05;;;;;;;4.13;2.90;;;13.20;99.90;;;;;;5009171;28;20030;-75
2022/05/18 00:13:30;;;;;;;5.40;2.53;;;13.20;99.90;;;;;;5010582;28;20388;-76
2022/05/18 00:15:56;;;;;;;5.40;3.30;;;13.10;99.90;;;;;;5010500;28;20561;-75
2022/05/18 00:18:22;;;;;;;2.72;2.00;;;13.10;99.90;;;;;;5012016;28;20320;-75
2022/05/18 00:20:48;;;;;;;2.78;2.28;;;13.20;99.90;;;;;;5013235;28;20680;-76
2022/05/18 00:23:14;;;;;;;3.17;2.80;;;13.20;99.90;;;;;;5012680;28;20030;-77
2022/05/18 00:25:40;;;;;;;3.47;2.38;;;13.30;99.90;;;;;;5012379;28;20490;-75
2022/05/18 00:28:10;;;;;;;4.05;2.60;;;13.20;99.90;;;;;;5008938;28;20084;-76
2022/05/18 00:30:38;;;;;;;3.20;2.00;;;13.20;99.90;;;;;;5009945;28;20370;-76
2022/05/18 00:33:06;;;;;;;4.35;3.40;;;13.10;99.90;;;;;;5009692;28;20510;-76
2022/05/18 00:35:33;;;;;;;3.05;2.70;;;13.00;99.90;;;;;;5009886;28;20034;-76
2022/05/18 00:38:00;;;;;;;5.60;3.13;;;13.00;99.90;;;;;;5009490;28;20088;-76
2022/05/18 00:40:26;;;;;;;5.35;2.47;;;12.90;99.90;;;;;;5009139;28;20030;-76
2022/05/18 00:42:52;;;;;;;6.32;2.80;;;12.80;99.90;;;;;;5010526;28;20136;-76
2022/05/18 00:45:18;;;;;;;4.28;2.38;;;12.80;99.90;;;;;;5012480;28;20046;-76
2022/05/18 00:47:44;;;;;;;5.30;3.25;;;;;;;;;;5011836;28;20037;-76
2022/05/18 00:50:22;;;;;;;5.93;2.80;;;12.90;99.90;;;;;;5011655;28;20044;-76
2022/05/18 00:52:59;;;;;;;4.07;2.47;;;12.90;99.90;;;;;;5010421;28;20125;-76
2022/05/18 00:55:26;;;;;;;6.70;2.70;;;13.00;99.90;;;;;;5011123;28;20452;-76
2022/05/18 00:58:08;;;;;;;2.95;2.60;;;13.00;99.90;;;;;;5009142;28;20149;-75
2022/05/18 01:00:35;;;;;;;9.20;2.90;;;13.00;99.90;;;;;;5011019;28;20040;-79
2022/05/18 01:03:16;;;;;;;3.35;2.92;;;13.00;99.90;;;;;;5011648;28;20108;-76
2022/05/18 01:05:45;;;;;;;4.95;2.60;;;12.90;99.90;;;;;;5011270;28;20510;-76
2022/05/18 01:08:14;;;;;;;;;;;12.80;99.90;;;;;;5024658;28;20025;-76
2022/05/18 01:10:39;;;;;;;2.80;2.05;;;12.70;99.90;;;;;;5010730;28;19944;-76
2022/05/18 01:13:06;;;;;;;2.17;1.98;;;12.60;99.90;;;;;;5009887;28;20064;-76
2022/05/18 01:15:32;;;;;;;3.65;2.80;;;12.50;99.90;;;;;;5010854;28;20502;-76
2022/05/18 01:18:01;;;;;;;2.90;2.63;;;12.50;99.90;;;;;;5010441;28;20061;-76
2022/05/18 01:20:33;;;;;;;3.17;2.40;;;12.50;99.90;;;;;;5010437;28;20038;-77
2022/05/18 01:23:01;;;;;;;4.45;2.65;;;12.60;99.90;;;;;;5027824;28;20471;-76
2022/05/18 01:25:36;;;;;;;7.55;2.80;;;12.50;99.90;;;;;;5012073;28;20045;-76
2022/05/18 01:28:04;;;;;;;5.88;2.70;;;12.50;99.90;;;;;;5013476;28;20484;-78
2022/05/18 01:30:31;;;;;;;3.30;2.78;;;12.40;99.90;;;;;;5029214;28;20036;-78
2022/05/18 01:32:58;;;;;;;3.42;2.42;;;12.30;99.90;;;;;;5013526;28;20052;-77
2022/05/18 01:35:27;;;;;;;3.72;2.42;;;12.30;99.90;;;;;;5029358;28;20037;-76
2022/05/18 01:38:00;;;;;;;9.93;3.50;;;12.30;99.90;;;;;;5030996;28;20168;-77
2022/05/18 01:40:46;;;;;;;5.22;2.72;;;12.30;99.90;;;;;;5015599;28;20077;-76
2022/05/18 01:43:32;;;;;;;4.50;2.72;;;12.40;99.90;;;;;;5015516;28;20029;-76
2022/05/18 01:46:00;;;;;;;2.50;2.30;;;12.40;99.90;;;;;;5015112;28;20045;-77
2022/05/18 01:48:34;;;;;;;5.78;2.25;;;12.40;99.90;;;;;;5029033;28;20487;-76
2022/05/18 01:51:01;;;;;;;8.45;3.58;;;11.60;99.90;;;;;;5014848;28;20021;-77
2022/05/18 01:53:28;;;;;;;4.65;2.70;;;12.40;99.90;;;;;;5029434;28;20025;-76
2022/05/18 01:55:55;;;;;;;4.13;2.83;;;12.40;99.90;;;;;;5014549;28;20026;-76
2022/05/18 01:58:21;;;;;;;8.18;2.47;;;12.40;99.90;;;;;;5012537;28;20025;-76
2022/05/18 02:00:47;;;;;;;3.20;2.40;;;12.30;99.90;;;;;;5014085;28;20632;-77
2022/05/18 02:03:14;;;;;;;5.72;2.50;;;12.30;99.90;;;;;;5014029;28;20022;-75
2022/05/18 02:05:40;;;;;;;6.65;2.70;;;12.20;99.90;;;;;;5014221;28;20082;-75
2022/05/18 02:08:09;;;;;;;4.82;2.63;;;12.20;99.90;;;;;;5013958;28;20072;-75
2022/05/18 02:10:35;;;;;;;5.38;3.10;;;12.10;99.90;;;;;;5012864;28;20056;-75
2022/05/18 02:13:01;;;;;;;4.55;2.92;;;12.10;99.90;;;;;;5014208;28;20057;-76
2022/05/18 02:15:27;;;;;;;3.75;2.70;;;12.00;99.90;;;;;;5013877;28;20042;-76
2022/05/18 02:17:53;;;;;;;3.35;2.60;;;12.00;99.90;;;;;;5013944;28;20028;-75
2022/05/18 02:20:20;;;;;;;4.57;2.85;;;11.90;99.90;;;;;;5014925;28;20033;-76
2022/05/18 02:22:46;;;;;;;4.47;3.10;;;11.90;99.90;;;;;;5014034;28;20041;-75
2022/05/18 02:25:11;;;;;;;5.28;3.15;;;11.90;99.90;;;;;;5028744;28;20629;-76
2022/05/18 02:27:40;;;;;;;3.72;2.90;;;12.00;99.90;;;;;;5014209;28;20296;-76
2022/05/18 02:30:07;;;;;;;2.80;2.25;;;13.10;99.90;;;;;;5013996;28;20398;-75
2022/05/18 02:46:15;;;;;;;6.25;3.15;;;11.70;99.90;;;;;;5015116;28;20037;-75
2022/05/18 02:48:41;;;;;;;5.55;3.08;;;11.70;99.90;;;;;;5015215;28;20168;-75
2022/05/18 02:51:08;;;;;;;6.90;3.13;;;11.70;99.90;;;;;;5014552;28;20139;-76
2022/05/18 02:53:34;;;;;;;3.97;2.97;;;11.80;99.90;;;;;;5033237;28;20030;-75
2022/05/18 03:09:28;;;;;;;3.00;2.63;;;11.50;99.90;;;;;;5025155;28;20063;-75
2022/05/18 03:11:55;;;;;;;3.83;3.30;;;11.50;99.90;;;;;;5024419;28;20484;-77
2022/05/18 03:14:20;;;;;;;5.68;2.88;;;11.50;99.90;;;;;;5022929;28;20025;-75
2022/05/18 03:16:46;;;;;;;3.08;2.75;;;11.50;99.90;;;;;;5022738;28;20122;-75
2022/05/18 03:19:13;;;;;;;4.63;2.95;;;11.60;99.90;;;;;;5035248;28;20033;-79
2022/05/18 03:35:08;;;;;;;3.53;2.83;;;11.40;99.90;;;;;;5023802;28;20209;-75
2022/05/18 03:37:34;;;;;;;2.60;2.40;;;11.40;99.90;;;;;;5020769;28;20438;-76
2022/05/18 03:40:00;;;;;;;4.15;3.53;;;;;;;;;;5020629;28;20060;-75
2022/05/18 03:42:26;;;;;;;5.40;3.15;;;11.40;99.90;;;;;;5022109;28;20029;-75
2022/05/18 03:44:52;;;;;;;3.80;3.05;;;11.40;99.90;;;;;;5020334;28;20029;-75
2022/05/18 03:47:17;;;;;;;4.00;2.47;;;11.30;99.90;;;;;;5021959;28;20034;-76
2022/05/18 03:49:43;;;;;;;3.63;2.35;;;11.30;99.90;;;;;;5018081;28;20037;-77
2022/05/18 03:52:09;;;;;;;4.35;3.03;;;11.30;99.90;;;;;;5031767;28;20117;-76
2022/05/18 03:54:35;;;;;;;4.13;2.88;;;11.40;99.90;;;;;;5018059;28;20026;-76
2022/05/18 03:57:00;;;;;;;3.22;2.60;;;11.40;99.90;;;;;;5032948;28;20030;-75
2022/05/18 03:59:26;;;;;;;4.88;2.60;;;11.30;99.90;;;;;;5016691;28;20040;-75
2022/05/18 04:01:52;;;;;;;3.38;2.45;;;11.30;99.90;;;;;;5017897;28;20028;-75
2022/05/18 04:04:17;;;;;;;5.38;2.35;;;11.30;99.90;;;;;;5017548;28;20076;-75
2022/05/18 04:06:43;;;;;;;4.40;2.53;;;11.30;99.90;;;;;;5016812;28;20034;-75
2022/05/18 04:09:09;;;;;;;4.25;3.60;;;11.30;99.90;;;;;;5016703;28;20076;-75
2022/05/18 04:11:35;;;;;;;4.10;3.28;;;11.40;99.90;;;;;;5016237;28;20434;-75
2022/05/18 04:14:00;;;;;;;7.75;3.45;;;11.50;99.90;;;;;;5017518;28;20022;-76
2022/05/18 04:16:26;;;;;;;4.03;3.28;;;11.50;99.90;;;;;;5017545;28;20046;-75
2022/05/18 04:18:55;;;;;;;3.45;3.08;;;11.70;99.90;;;;;;5019585;28;20025;-75
2022/05/18 04:21:22;;;;;;;5.82;2.53;;;11.80;99.90;;;;;;5024215;28;20034;-75
2022/05/18 04:23:49;;;;;;;3.63;3.03;;;11.90;99.90;;;;;;5022992;28;20029;-75
2022/05/18 04:26:24;;;;;;;2.63;2.30;;;11.90;99.90;;;;;;5020638;28;20117;-76
2022/05/18 04:28:50;;;;;;;2.72;2.47;;;11.90;99.90;;;;;;5020263;28;20105;-75
2022/05/18 04:31:15;;;;;;;5.05;2.60;;;11.90;99.90;;;;;;5018037;28;20049;-75
2022/05/18 04:33:41;;;;;;;1.88;1.77;;;12.60;99.90;;;;;;5015078;28;20109;-75
2022/05/18 04:36:07;;;;;;;5.32;2.10;;;12.90;99.90;;;;;;5011695;28;20033;-75
2022/05/18 04:38:33;;;;;;;3.10;2.03;;;13.20;99.90;;;;;;5011226;28;20022;-75
2022/05/18 04:40:59;;;;;;;2.83;1.85;;;13.20;99.90;;;;;;5026281;28;20121;-75
2022/05/18 04:43:25;;;;;;;2.92;1.98;;;13.40;99.90;;;;;;5011344;28;20057;-75
2022/05/18 04:45:52;;;;;;;2.65;2.08;;;13.50;99.90;;;;;;5009870;28;20029;-75
2022/05/18 04:48:19;;;;;;;3.75;1.52;;;13.50;99.90;;;;;;5011071;28;20096;-75
2022/05/18 04:50:47;;;;;;;2.00;1.90;;;13.50;99.90;;;;;;5011269;28;20037;-75
2022/05/18 04:53:14;;;;;;;3.08;1.65;;;13.30;99.90;;;;;;5011129;28;20509;-76
2022/05/18 04:55:40;;;;;;;4.93;2.08;;;13.20;99.90;;;;;;5011333;28;20041;-75
2022/05/18 04:58:06;;;;;;;6.43;2.25;;;13.00;99.90;;;;;;5010831;28;20469;-75
2022/05/18 05:00:32;;;;;;;2.97;1.80;;;13.00;99.90;;;;;;5010851;28;20026;-75
2022/05/18 05:02:59;;;;;;;4.25;2.55;;;13.00;99.90;;;;;;5026482;28;20025;-75
2022/05/18 05:05:26;;;;;;;2.38;2.00;;;13.10;99.90;;;;;;5024347;28;20029;-81
2022/05/18 05:07:55;;;;;;;2.97;2.63;;;13.10;99.90;;;;;;5035250;28;20025;-77
2022/05/18 05:10:21;;;;;;;4.43;2.10;;;13.20;99.90;;;;;;5014426;28;20563;-75
2022/05/18 05:12:47;;;;;;;3.80;2.92;;;13.30;99.90;;;;;;5011331;28;20030;-75
2022/05/18 05:15:14;;;;;;;4.10;2.92;;;13.30;99.90;;;;;;5010238;28;20061;-76
2022/05/18 05:17:40;;;;;;;2.08;1.80;;;13.40;99.90;;;;;;5010813;28;20367;-76
2022/05/18 05:20:08;;;;;;;2.90;1.92;;;13.70;99.90;;;;;;5026124;28;20559;-77
2022/05/18 05:22:33;;;;;;;4.95;2.85;;;13.60;99.90;;;;;;5010771;28;20029;-80
2022/05/18 05:25:00;;;;;;;4.25;3.15;;;13.80;99.90;;;;;;5010781;28;20026;-79
2022/05/18 05:27:25;;;;;;;4.45;2.42;;;13.90;99.90;;;;;;5010670;28;20096;-77
2022/05/18 05:29:51;;;;;;;7.18;3.60;;;14.00;99.90;;;;;;5010689;28;20037;-76
2022/05/18 05:32:17;;;;;;;6.15;2.60;;;14.30;99.90;;;;;;5010429;28;20029;-78
2022/05/18 05:34:43;;;;;;;3.20;2.00;;;14.40;99.90;;;;;;5010341;28;20030;-75
2022/05/18 05:37:09;;;;;;;2.92;2.08;;;14.60;99.90;;;;;;5010107;28;20021;-75
2022/05/18 05:39:35;;;;;;;4.90;3.03;;;14.70;99.90;;;;;;5010180;28;20034;-75
2022/05/18 05:42:01;;;;;;;11.15;6.30;;;14.80;99.90;;;;;;5010226;28;20022;-79
2022/05/18 05:44:27;;;;;;;13.95;6.70;;;14.90;99.90;;;;;;5025315;28;20037;-75
2022/05/18 05:46:53;;;;;;;17.35;8.23;;;15.10;99.90;;;;;;5010020;28;20030;-76
2022/05/18 05:49:19;;;;;;;10.75;5.85;;;15.30;99.90;;;;;;5025163;28;20402;-77
2022/05/18 05:51:45;;;;;;;13.85;5.47;;;15.50;99.90;;;;;;5010586;28;20033;-76
2022/05/18 05:54:11;;;;;;;8.57;4.03;;;15.80;99.90;;;;;;5010172;28;20049;-78
2022/05/18 05:56:37;;;;;;;10.20;4.18;;;15.80;99.90;;;;;;5010176;28;20022;-76
2022/05/18 05:59:03;;;;;;;11.68;4.35;;;15.90;99.90;;;;;;5008962;28;20037;-82
2022/05/18 06:01:29;;;;;;;9.95;3.65;;;16.00;99.90;;;;;;5010072;28;20025;-75
2022/05/18 06:03:55;;;;;;;6.22;2.72;;;16.20;99.90;;;;;;5010138;28;20048;-76
2022/05/18 06:06:21;;;;;;;3.95;1.95;;;16.30;99.90;;;;;;5010044;28;20026;-75
2022/05/18 06:08:47;;;;;;;5.28;2.20;;;16.50;99.90;;;;;;5010213;28;20507;-76
2022/05/18 06:11:13;;;;;;;3.33;3.00;;;16.70;99.90;;;;;;5009888;28;20022;-77
2022/05/18 06:13:39;;;;;;;4.50;2.80;;;16.70;99.90;;;;;;5025033;28;20030;-79
2022/05/18 06:16:07;;;;;;;5.10;2.55;;;16.90;99.90;;;;;;5008399;28;20042;-75
2022/05/18 06:18:33;;;;;;;2.95;1.95;;;17.20;99.90;;;;;;5025397;28;20029;-75
2022/05/18 06:20:59;;;;;;;3.97;2.22;;;17.40;99.90;;;;;;5010254;28;20061;-75
2022/05/18 06:23:26;;;;;;;3.00;1.67;;;17.80;99.90;;;;;;5010255;28;20061;-76
2022/05/18 06:25:51;;;;;;;3.92;1.88;;;17.80;99.90;;;;;;5025350;28;20501;-76
2022/05/18 06:28:18;;;;;;;2.45;1.65;;;18.00;99.90;;;;;;5029005;28;20029;-76
2022/05/18 06:30:44;;;;;;;4.00;2.72;;;18.00;99.90;;;;;;5014488;28;20034;-77
2022/05/18 06:33:10;;;;;;;2.33;2.08;;;18.10;99.90;;;;;;5014169;28;20053;-79
2022/05/18 06:35:36;;;;;;;4.60;2.55;;;18.20;99.90;;;;;;5014461;28;20049;-76
2022/05/18 06:38:13;;;;;;;3.20;1.80;;;18.10;99.90;;;;;;5014400;28;20026;-76
2022/05/18 06:43:24;;;;;;;23.65;10.52;;;18.60;99.90;;;;;;5013469;28;20032;-76
2022/05/18 06:45:49;;;;;;;7.88;4.45;;;19.00;99.90;;;;;;5028520;28;20049;-75
2022/05/18 06:48:15;;;;;;;13.95;2.63;;;19.50;99.90;;;;;;5013180;28;20026;-75
2022/05/18 06:50:41;;;;;;;2.10;1.70;;;20.40;99.90;;;;;;5013452;28;20038;-76
2022/05/18 06:53:06;;;;;;;3.53;1.80;;;21.30;99.90;;;;;;5013433;28;20540;-76
2022/05/18 06:55:32;;;;;;;2.80;1.60;;;22.10;99.90;;;;;;5013333;28;20034;-76
2022/05/18 06:57:58;;;;;;;2.42;1.38;;;23.20;99.90;;;;;;5013574;28;20025;-76
2022/05/18 07:00:24;;;;;;;18.27;7.13;;;24.30;99.90;;;;;;5013197;28;20108;-79
2022/05/18 07:02:50;;;;;;;4.45;2.60;;;25.40;94.10;;;;;;5012662;28;20421;-76
2022/05/18 07:05:16;;;;;;;2.25;1.05;;;26.10;77.70;;;;;;5028451;28;20038;-78
2022/05/18 07:07:41;;;;;;;1.30;1.20;;;26.60;68.40;;;;;;5013029;28;20014;-77
2022/05/18 07:10:08;;;;;;;1.92;1.30;;;27.00;63.80;;;;;;5013334;28;20037;-77
2022/05/18 07:12:37;;;;;;;2.50;1.38;;;27.20;63.70;;;;;;5013266;28;20022;-77
2022/05/18 07:15:04;;;;;;;1.33;1.00;;;27.20;62.40;;;;;;5011833;28;20057;-76
2022/05/18 07:17:31;;;;;;;3.53;1.33;;;27.20;60.80;;;;;;5012784;28;20034;-76
2022/05/18 07:19:56;;;;;;;1.40;1.08;;;27.40;62.00;;;;;;5012792;28;20022;-72
2022/05/18 07:22:22;;;;;;;55.15;2.40;;;27.60;60.60;;;;;;5002415;28;20021;-75
2022/05/18 07:24:48;;;;;;;2.42;1.35;;;27.30;60.70;;;;;;5011912;28;20034;-73
2022/05/18 07:27:13;;;;;;;1.23;0.88;;;27.20;60.20;;;;;;4999953;28;20030;-76
2022/05/18 07:29:39;;;;;;;3.17;1.55;;;27.60;60.40;;;;;;5009710;28;20410;-76
2022/05/18 07:32:08;;;;;;;1.50;0.93;;;27.70;59.90;;;;;;5008415;28;20410;-77
2022/05/18 07:34:34;;;;;;;;;;;28.10;59.10;;;;;;5025901;28;20036;-80
2022/05/18 07:37:01;;;;;;;4.07;1.02;;;28.00;58.50;;;;;;5008604;28;20012;-81
2022/05/18 07:39:28;;;;;;;1.23;0.90;;;28.10;57.90;;;;;;5021161;28;20080;-77
2022/05/18 07:41:55;;;;;;;2.53;1.00;;;27.90;57.80;;;;;;5008808;28;20095;-77
2022/05/18 07:44:21;;;;;;;0.93;0.85;;;27.70;59.00;;;;;;5004765;28;20683;-73
2022/05/18 07:46:47;;;;;;;11.40;6.57;;;28.10;58.20;;;;;;5003013;28;20235;-79
2022/05/18 07:49:13;;;;;;;3.00;1.35;;;28.40;57.90;;;;;;5010417;28;20037;-80
2022/05/18 07:51:39;;;;;;;11.57;1.02;;;28.00;57.60;;;;;;5007969;28;20387;-80
2022/05/18 07:54:04;;;;;;;0.57;0.57;;;27.70;58.20;;;;;;5006090;28;20049;-80
2022/05/18 07:56:31;;;;;;;1.27;0.77;;;27.70;57.80;;;;;;5006499;28;20033;-80
2022/05/18 07:58:57;;;;;;;1.00;0.70;;;28.00;57.10;;;;;;5007531;28;20034;-80
2022/05/18 08:01:22;;;;;;;6.18;1.65;;;28.30;57.00;;;;;;5007280;28;20026;-79
2022/05/18 08:03:48;;;;;;;1.35;1.17;;;28.40;56.50;;;;;;5007560;28;20600;-78
2022/05/18 08:06:14;;;;;;;1.58;1.27;;;28.70;57.10;;;;;;5006191;28;20137;-78
2022/05/18 08:08:40;;;;;;;0.75;0.75;;;28.80;55.60;;;;;;5006192;28;20034;-78
2022/05/18 08:16:35;;;;;;;3.33;1.45;;;29.30;55.30;;;;;;5008120;28;20481;-78
2022/05/18 08:19:01;;;;;;;8.40;4.85;;;29.10;56.00;;;;;;5007015;28;20091;-78
2022/05/18 08:21:27;;;;;;;2.92;1.90;;;29.10;56.40;;;;;;5007692;28;20025;-80
2022/05/18 08:23:54;;;;;;;3.60;1.13;;;28.90;56.40;;;;;;5008724;28;20014;-80
2022/05/18 08:26:20;;;;;;;1.92;0.85;;;29.10;56.00;;;;;;5007171;28;20120;-80
2022/05/18 08:28:46;;;;;;;1.45;1.10;;;29.10;56.60;;;;;;5007057;28;20924;-80
2022/05/18 08:31:17;;;;;;;2.53;1.35;;;29.20;56.40;;;;;;5006928;28;20029;-80
2022/05/18 08:33:43;;;;;;;1.48;1.00;;;29.20;55.80;;;;;;5008102;28;20022;-77
2022/05/18 08:36:09;;;;;;;3.95;0.90;;;29.20;55.60;;;;;;5008948;28;20416;-80
2022/05/18 08:38:35;;;;;;;2.50;1.27;;;28.70;56.40;;;;;;5007004;28;20260;-81
2022/05/18 08:41:12;;;;;;;1.83;0.82;;;29.00;56.70;;;;;;5008493;28;20041;-80
2022/05/18 08:43:42;;;;;;;2.20;1.23;;;28.70;55.10;;;;;;5008589;28;20108;-80
2022/05/18 08:46:29;;;;;;;3.28;1.02;;;28.10;56.30;;;;;;5008236;28;20045;-80
2022/05/18 08:49:15;;;;;;;0.82;0.82;;;28.40;56.70;;;;;;5006059;28;20544;-81
2022/05/18 08:51:56;;;;;;;3.78;1.55;;;28.80;56.30;;;;;;5008006;28;20482;-80
2022/05/18 08:54:45;;;;;;;1.63;1.05;;;28.30;56.40;;;;;;5006261;28;20057;-81
2022/05/18 08:57:17;;;;;;;4.45;1.80;;;27.00;57.50;;;;;;4987317;28;20049;-80
2022/05/18 08:59:44;;;;;;;3.08;0.90;;;26.90;60.00;;;;;;5007969;28;20482;-79
2022/05/18 09:02:17;;;;;;;1.90;1.05;;;27.10;60.40;;;;;;5007467;28;20026;-79
2022/05/18 09:05:25;;;;;;;4.43;1.00;;;27.20;58.80;;;;;;5007835;28;20021;-80
2022/05/18 09:08:12;;;;;;;4.88;1.50;;;27.10;57.30;;;;;;4968039;28;20031;-80
2022/05/18 09:10:45;;;;;;;0.82;0.82;;;26.70;59.70;;;;;;5007192;28;20042;-80
2022/05/18 09:13:13;;;;;;;1.23;1.13;;;27.20;59.10;;;;;;5006323;28;20076;-80
2022/05/18 09:15:44;;;;;;;0.93;0.73;;;27.20;56.60;;;;;;5007187;28;20053;-80
2022/05/18 09:18:45;;;;;;;3.10;0.90;;;27.10;58.30;;;;;;5002915;28;20030;-80
2022/05/18 09:21:38;;;;;;;1.95;0.80;;;26.70;58.60;;;;;;4966337;28;20035;-79
2022/05/18 09:24:12;;;;;;;1.63;1.17;;;26.40;59.30;;;;;;4987959;28;20041;-80
2022/05/18 09:26:57;;;;;;;1.23;1.08;;;26.50;59.90;;;;;;4986350;28;20117;-80
2022/05/18 09:29:46;;;;;;;1.02;0.80;;;26.90;60.20;;;;;;4987599;28;20030;-80
2022/05/18 09:32:15;;;;;;;2.28;1.00;;;27.00;58.40;;;;;;4987583;28;20022;-80
2022/05/18 09:34:50;;;;;;;1.10;0.98;;;27.00;57.50;;;;;;4986142;28;20578;-80
2022/05/18 09:37:30;;;;;;;1.23;0.90;;;27.30;56.60;;;;;;4987734;28;20031;-81
2022/05/18 09:40:22;;;;;;;2.65;1.75;;;27.60;57.50;;;;;;4987729;28;20490;-82
2022/05/18 09:43:13;;;;;;;1.67;0.80;;;27.10;56.90;;;;;;4987097;28;20026;-87
2022/05/18 09:45:45;;;;;;;1.60;1.15;;;27.00;57.90;;;;;;5003639;28;20052;-87
2022/05/18 09:48:28;;;;;;;3.40;1.10;;;27.00;58.80;;;;;;4987611;28;20080;-81
2022/05/18 09:50:55;;;;;;;2.05;1.55;;;26.90;57.10;;;;;;5002312;28;20121;-82
2022/05/18 09:53:21;;;;;;;1.05;0.95;;;27.10;57.30;;;;;;5002411;28;20109;-83
2022/05/18 09:55:49;;;;;;;2.95;0.90;;;26.80;57.60;;;;;;4987660;28;20590;-84
2022/05/18 09:58:36;;;;;;;2.17;0.60;;;26.60;57.30;;;;;;4987590;28;20089;-81
2022/05/18 10:09:49;;;;;;;1.17;1.08;;;26.70;56.30;;;;;;4987357;28;20487;-81
2022/05/18 10:12:26;;;;;;;5.22;0.90;;;26.50;56.90;;;;;;4987533;28;20126;-81
2022/05/18 10:15:03;;;;;;;3.55;0.80;;;26.60;57.60;;;;;;5002817;28;20212;-83
2022/05/18 10:17:36;;;;;;;2.42;1.40;;;27.00;57.40;;;;;;5015767;28;20591;-84
2022/05/18 10:20:11;;;;;;;1.00;0.73;;;27.00;57.50;;;;;;5005550;28;20029;-81
2022/05/18 10:22:44;;;;;;;1.02;0.93;;;26.90;56.10;;;;;;5006794;28;20022;-77
2022/05/18 10:25:14;;;;;;;1.40;0.98;;;27.20;57.20;;;;;;5002947;28;20193;-76
2022/05/18 10:27:44;;;;;;;2.35;1.00;;;27.30;55.80;;;;;;5005661;28;20038;-73
2022/05/18 10:30:14;;;;;;;2.15;0.50;;;27.40;52.50;;;;;;5006694;28;20096;-80
2022/05/18 10:32:56;;;;;;;1.58;1.30;;;27.60;54.30;;;;;;5006377;28;20026;-79
2022/05/18 10:35:49;;;;;;;1.50;0.95;;;27.70;54.50;;;;;;5006578;28;20042;-80
2022/05/18 10:38:49;;;;;;;1.20;1.10;;;27.90;52.70;;;;;;5006403;28;20492;-78
2022/05/18 10:41:18;;;;;;;1.77;0.80;;;27.90;52.80;;;;;;5004637;28;20030;-82
2022/05/18 10:44:06;;;;;;;2.07;0.60;;;27.90;53.50;;;;;;5005092;28;20446;-78
2022/05/18 10:46:43;;;;;;;0.90;0.65;;;28.00;55.10;;;;;;5006654;28;20265;-79
2022/05/18 10:49:35;;;;;;;0.65;0.40;;;28.20;52.50;;;;;;5006095;28;20049;-80
2022/05/18 10:52:26;;;;;;;0.60;0.55;;;28.60;50.90;;;;;;5006478;28;20029;-81
2022/05/18 10:54:59;;;;;;;2.13;0.63;;;28.90;50.60;;;;;;5007046;28;20046;-79
2022/05/18 10:57:38;;;;;;;0.70;0.40;;;29.10;50.20;;;;;;5006039;28;20113;-79
2022/05/18 11:00:04;;;;;;;;;;;28.60;50.10;;;;;;5005427;28;20061;-79
2022/05/18 11:02:51;;;;;;;2.65;1.20;;;28.60;50.50;;;;;;5005852;28;19916;-80
2022/05/18 11:05:38;;;;;;;0.65;0.65;;;29.10;50.40;;;;;;5006574;28;20052;-82
2022/05/18 11:08:14;;;;;;;0.55;0.52;;;29.40;49.30;;;;;;5004839;28;20022;-78
2022/05/18 11:10:48;;;;;;;0.98;0.60;;;29.50;49.50;;;;;;5007188;28;20037;-80
2022/05/18 11:13:22;;;;;;;0.95;0.60;;;29.70;49.90;;;;;;5007752;28;20501;-80
2022/05/18 11:15:58;;;;;;;11.45;1.15;;;29.60;48.20;;;;;;5009688;28;20060;-79
2022/05/18 11:18:47;;;;;;;1.05;0.63;;;29.60;49.30;;;;;;4989674;28;20092;-79
2022/05/18 11:21:32;;;;;;;0.68;0.60;;;30.60;50.70;;;;;;4989027;28;20251;-79
2022/05/18 11:24:17;;;;;;;0.50;0.50;;;31.00;49.50;;;;;;4988728;28;20121;-78
2022/05/18 11:27:13;;;;;;;1.35;1.13;;;30.90;50.50;;;;;;4989788;28;20025;-80
2022/05/18 11:30:07;;;;;;;0.82;0.77;;;31.50;50.70;;;;;;4988327;28;20306;-80
2022/05/18 11:32:52;;;;;;;0.93;0.70;;;31.20;47.70;;;;;;4988573;28;20056;-81
2022/05/18 11:35:49;;;;;;;1.00;0.80;;;30.70;49.10;;;;;;4988283;28;20022;-79
2022/05/18 11:38:33;;;;;;;1.27;0.50;;;30.10;48.20;;;;;;4990295;28;20502;-78
2022/05/18 11:41:17;;;;;;;0.63;0.50;;;30.30;48.90;;;;;;4989932;28;20018;-79
2022/05/18 11:44:01;;;;;;;0.90;0.88;;;29.90;49.00;;;;;;4990108;28;20063;-80
2022/05/18 11:46:39;;;;;;;2.40;1.45;;;30.00;47.60;;;;;;4988359;28;20038;-81
2022/05/18 11:49:26;;;;;;;0.77;0.70;;;30.10;48.20;;;;;;4989598;28;20493;-79
2022/05/18 11:52:10;;;;;;;2.20;0.85;;;30.30;49.30;;;;;;4989587;28;20457;-81
2022/05/18 11:54:48;;;;;;;2.45;0.70;;;30.40;48.60;;;;;;4988044;28;20380;-79
2022/05/18 11:57:47;;;;;;;1.27;0.82;;;29.80;47.40;;;;;;4989477;28;20509;-79
2022/05/18 12:00:34;;;;;;;2.30;0.75;;;30.10;47.30;;;;;;4990137;28;20030;-75
2022/05/18 12:03:34;;;;;;;2.30;0.45;;;30.60;48.00;;;;;;4991873;28;20030;-81
2022/05/18 12:06:33;;;;;;;0.50;0.50;;;31.30;46.90;;;;;;4988640;28;20483;-79
2022/05/18 12:09:34;;;;;;;2.17;0.50;;;32.40;46.10;;;;;;4988192;28;20109;-76
2022/05/18 12:12:15;;;;;;;0.45;0.45;;;32.70;47.20;;;;;;4987968;28;20088;-74
2022/05/18 12:15:02;;;;;;;0.40;0.30;;;32.80;45.10;;;;;;4988947;28;20118;-73
2022/05/18 12:17:51;;;;;;;1.35;0.60;;;33.20;46.70;;;;;;5002572;28;20049;-73
2022/05/18 12:20:31;;;;;;;1.10;0.60;;;32.50;46.30;;;;;;5008878;28;20519;-75
2022/05/18 12:23:00;;;;;;;1.02;0.50;;;32.20;46.60;;;;;;5006520;28;20051;-74
2022/05/18 12:25:28;;;;;;;2.67;0.70;;;32.60;46.10;;;;;;5009032;28;20018;-75
2022/05/18 12:27:57;;;;;;;1.40;0.70;;;33.10;44.40;;;;;;5009074;28;20374;-76
2022/05/18 12:30:26;;;;;;;0.50;0.50;;;32.40;44.30;;;;;;5009838;28;20568;-77
2022/05/18 12:32:53;;;;;;;1.85;0.77;;;32.00;44.20;;;;;;5009213;28;20033;-76
2022/05/18 12:35:35;;;;;;;1.85;0.57;;;32.10;46.00;;;;;;5008475;28;20109;-76
2022/05/18 12:38:21;;;;;;;5.45;0.40;;;32.50;48.10;;;;;;5008122;28;20048;-74
2022/05/18 12:41:00;;;;;;;1.50;0.65;;;32.90;46.00;;;;;;5007836;28;20297;-74
2022/05/18 12:43:46;;;;;;;1.50;0.60;;;33.10;47.20;;;;;;5017816;28;20203;-74
2022/05/18 12:46:15;;;;;;;1.88;0.40;;;32.90;43.80;;;;;;5017499;28;20033;-75
2022/05/18 12:48:44;;;;;;;;;;;33.50;45.30;;;;;;5008438;28;20037;-74
2022/05/18 12:51:31;;;;;;;;;;;33.90;46.40;;;;;;5006545;28;19944;-74
2022/05/18 12:54:09;;;;;;;0.77;0.40;;;34.00;45.60;;;;;;5006342;28;19932;-75
2022/05/18 12:56:37;;;;;;;0.43;0.43;;;34.00;45.10;;;;;;5005359;28;20018;-74
2022/05/18 12:59:11;;;;;;;1.08;0.60;;;34.40;42.50;;;;;;5005055;28;20044;-76
2022/05/18 13:01:43;;;;;;;1.50;1.02;;;34.80;46.30;;;;;;5005035;28;20490;-75
2022/05/18 13:04:09;;;;;;;0.68;0.68;;;34.20;42.80;;;;;;5006071;28;20075;-77
2022/05/18 13:06:39;;;;;;;0.50;0.50;;;32.80;42.50;;;;;;5006396;28;20038;-78
2022/05/18 13:09:36;;;;;;;1.23;1.05;;;32.20;43.20;;;;;;5007669;28;20045;-78
2022/05/18 13:12:27;;;;;;;0.30;0.30;;;32.40;41.50;;;;;;5007973;28;20174;-78
2022/05/18 13:15:14;;;;;;;1.25;0.40;;;32.00;41.60;;;;;;5008107;28;20053;-78
2022/05/18 13:17:51;;;;;;;1.45;0.50;;;32.40;44.90;;;;;;5003761;28;20490;-76
2022/05/18 13:20:26;;;;;;;0.50;0.50;;;33.20;46.30;;;;;;5005616;28;20148;-76
2022/05/18 13:22:59;;;;;;;1.42;0.70;;;33.50;43.50;;;;;;5003788;28;20063;-76
2022/05/18 13:25:28;;;;;;;2.30;0.45;;;34.60;44.00;;;;;;5005466;28;20482;-76
2022/05/18 13:27:56;;;;;;;2.33;0.75;;;35.10;43.00;;;;;;5005563;28;20033;-76
2022/05/18 13:30:40;;;;;;;0.95;0.40;;;35.20;43.00;;;;;;5005120;28;20195;-76
2022/05/18 13:33:08;;;;;;;1.20;0.93;;;35.40;42.30;;;;;;5002755;28;20030;-76
2022/05/18 13:35:35;;;;;;;13.35;1.17;;;34.40;42.60;;;;;;5003018;28;20541;-76
2022/05/18 13:38:09;;;;;;;0.75;0.68;;;34.00;43.10;;;;;;5005405;28;20022;-76
2022/05/18 13:40:46;;;;;;;0.30;0.30;;;34.00;42.40;;;;;;5003728;28;20088;-78
2022/05/18 13:43:14;;;;;;;1.95;0.40;;;32.70;42.80;;;;;;5006582;28;20057;-78
2022/05/18 13:45:44;;;;;;;0.63;0.40;;;32.70;43.50;;;;;;5005507;28;20434;-79
2022/05/18 13:48:12;;;;;;;0.82;0.50;;;33.10;45.80;;;;;;5004576;28;20033;-76
2022/05/18 13:50:42;;;;;;;1.05;0.60;;;33.40;44.90;;;;;;5006308;28;20066;-76
2022/05/18 13:53:16;;;;;;;2.03;0.40;;;33.80;45.90;;;;;;5005389;28;20036;-77
2022/05/18 13:55:45;;;;;;;0.38;0.38;;;34.30;42.50;;;;;;5020193;28;20034;-76
2022/05/18 13:58:16;;;;;;;1.30;0.63;;;34.60;42.20;;;;;;5005559;28;20060;-76
2022/05/18 14:00:48;;;;;;;3.05;0.60;;;34.10;44.30;;;;;;5005391;28;20057;-77
2022/05/18 14:03:17;;;;;;;1.98;0.60;;;34.90;43.80;;;;;;5004341;28;20037;-76
2022/05/18 14:05:43;;;;;;;1.65;0.40;;;34.60;43.50;;;;;;5005727;28;20121;-76
2022/05/18 14:08:30;;;;;;;3.92;0.52;;;34.30;43.10;;;;;;5006254;28;20082;-77